sensor_id;sensor_type;location;lat;lon;timestamp;P1;durP1;ratioP1;P2;durP2;ratioP2
20743;SDS011;56303;52.160;-0.428;2023-11-19T00:00:10;31.87;;;9.67;;
20743;SDS011;56303;52.160;-0.428;2023-11-19T00:02:39;31.77;;;8.63;;
20743;SDS011;56303;52.160;-0.428;2023-11-19T00:05:09;21.37;;;6.20;;
20743;SDS011;56303;52.160;-0.428;2023-11-19T00:07:40;24.83;;;7.60;;
20743;SDS011;56303;52.160;-0.428;2023-11-19T00:10:09;26.83;;;8.10;;
20743;SDS011;56303;52.160;-0.428;2023-11-19T00:12:41;20.00;;;6.47;;
20743;SDS011;56303;52.160;-0.428;2023-11-19T00:15:10;23.70;;;7.33;;
20743;SDS011;56303;52.160;-0.428;2023-11-19T00:17:39;22.43;;;7.67;;
20743;SDS011;56303;52.160;-0.428;2023-11-19T00:20:18;26.33;;;7.70;;
20743;SDS011;56303;52.160;-0.428;2023-11-19T00:22:46;27.27;;;8.03;;
20743;SDS011;56303;52.160;-0.428;2023-11-19T00:25:16;30.47;;;8.40;;
20743;SDS011;56303;52.160;-0.428;2023-11-19T00:27:43;25.10;;;7.27;;
20743;SDS011;56303;52.160;-0.428;2023-11-19T00:30:13;24.70;;;7.97;;
20743;SDS011;56303;52.160;-0.428;2023-11-19T00:32:41;22.50;;;7.80;;
20743;SDS011;56303;52.160;-0.428;2023-11-19T00:35:08;25.90;;;7.17;;
20743;SDS011;56303;52.160;-0.428;2023-11-19T00:37:41;26.93;;;7.90;;
20743;SDS011;56303;52.160;-0.428;2023-11-19T00:40:15;28.97;;;8.10;;
20743;SDS011;56303;52.160;-0.428;2023-11-19T00:42:44;25.10;;;8.30;;
20743;SDS011;56303;52.160;-0.428;2023-11-19T00:45:11;27.50;;;9.10;;
20743;SDS011;56303;52.160;-0.428;2023-11-19T00:47:39;22.40;;;7.53;;
20743;SDS011;56303;52.160;-0.428;2023-11-19T00:50:07;24.90;;;7.30;;
20743;SDS011;56303;52.160;-0.428;2023-11-19T00:52:37;17.70;;;6.63;;
20743;SDS011;56303;52.160;-0.428;2023-11-19T00:55:05;25.90;;;8.07;;
20743;SDS011;56303;52.160;-0.428;2023-11-19T00:57:33;26.07;;;8.10;;
20743;SDS011;56303;52.160;-0.428;2023-11-19T01:00:00;23.53;;;8.13;;
20743;SDS011;56303;52.160;-0.428;2023-11-19T01:02:27;25.43;;;6.90;;
20743;SDS011;56303;52.160;-0.428;2023-11-19T01:04:54;22.70;;;7.07;;
20743;SDS011;56303;52.160;-0.428;2023-11-19T01:07:22;22.07;;;7.47;;
20743;SDS011;56303;52.160;-0.428;2023-11-19T01:09:50;25.97;;;7.33;;
20743;SDS011;56303;52.160;-0.428;2023-11-19T01:12:17;23.27;;;6.63;;
20743;SDS011;56303;52.160;-0.428;2023-11-19T01:14:44;23.80;;;6.03;;
20743;SDS011;56303;52.160;-0.428;2023-11-19T01:17:10;22.20;;;6.43;;
20743;SDS011;56303;52.160;-0.428;2023-11-19T01:19:37;23.83;;;6.60;;
20743;SDS011;56303;52.160;-0.428;2023-11-19T01:22:04;22.63;;;7.20;;
20743;SDS011;56303;52.160;-0.428;2023-11-19T01:24:31;20.47;;;6.20;;
20743;SDS011;56303;52.160;-0.428;2023-11-19T01:26:58;23.57;;;6.93;;
20743;SDS011;56303;52.160;-0.428;2023-11-19T01:29:26;29.57;;;7.80;;
20743;SDS011;56303;52.160;-0.428;2023-11-19T01:31:53;25.57;;;5.83;;
20743;SDS011;56303;52.160;-0.428;2023-11-19T01:34:20;23.57;;;7.53;;
20743;SDS011;56303;52.160;-0.428;2023-11-19T01:36:46;19.80;;;7.00;;
20743;SDS011;56303;52.160;-0.428;2023-11-19T01:39:15;24.67;;;7.33;;
20743;SDS011;56303;52.160;-0.428;2023-11-19T01:41:42;17.67;;;6.60;;
20743;SDS011;56303;52.160;-0.428;2023-11-19T01:44:09;26.30;;;7.80;;
20743;SDS011;56303;52.160;-0.428;2023-11-19T01:46:40;31.60;;;8.43;;
20743;SDS011;56303;52.160;-0.428;2023-11-19T01:49:08;25.00;;;8.30;;
20743;SDS011;56303;52.160;-0.428;2023-11-19T01:51:35;22.77;;;7.77;;
20743;SDS011;56303;52.160;-0.428;2023-11-19T01:54:02;27.20;;;7.73;;
20743;SDS011;56303;52.160;-0.428;2023-11-19T01:56:29;25.43;;;7.53;;
20743;SDS011;56303;52.160;-0.428;2023-11-19T01:58:57;24.93;;;7.30;;
20743;SDS011;56303;52.160;-0.428;2023-11-19T02:01:25;28.70;;;7.37;;
20743;SDS011;56303;52.160;-0.428;2023-11-19T02:03:53;24.43;;;7.60;;
20743;SDS011;56303;52.160;-0.428;2023-11-19T02:06:21;27.03;;;6.73;;
20743;SDS011;56303;52.160;-0.428;2023-11-19T02:08:49;23.63;;;6.53;;
20743;SDS011;56303;52.160;-0.428;2023-11-19T02:11:16;22.37;;;7.83;;
20743;SDS011;56303;52.160;-0.428;2023-11-19T02:13:43;24.67;;;7.13;;
20743;SDS011;56303;52.160;-0.428;2023-11-19T02:16:10;21.97;;;7.03;;
20743;SDS011;56303;52.160;-0.428;2023-11-19T02:18:38;22.00;;;7.43;;
20743;SDS011;56303;52.160;-0.428;2023-11-19T02:21:05;29.60;;;8.17;;
20743;SDS011;56303;52.160;-0.428;2023-11-19T02:23:32;29.17;;;7.63;;
20743;SDS011;56303;52.160;-0.428;2023-11-19T02:26:01;23.80;;;7.53;;
20743;SDS011;56303;52.160;-0.428;2023-11-19T02:28:28;22.27;;;8.10;;
20743;SDS011;56303;52.160;-0.428;2023-11-19T02:30:55;26.80;;;7.60;;
20743;SDS011;56303;52.160;-0.428;2023-11-19T02:33:22;19.40;;;6.43;;
20743;SDS011;56303;52.160;-0.428;2023-11-19T02:35:50;20.13;;;6.63;;
20743;SDS011;56303;52.160;-0.428;2023-11-19T02:38:17;23.97;;;8.20;;
20743;SDS011;56303;52.160;-0.428;2023-11-19T02:40:44;30.30;;;7.63;;
20743;SDS011;56303;52.160;-0.428;2023-11-19T02:43:11;21.20;;;6.87;;
20743;SDS011;56303;52.160;-0.428;2023-11-19T02:45:39;23.23;;;7.17;;
20743;SDS011;56303;52.160;-0.428;2023-11-19T02:48:06;22.43;;;7.33;;
20743;SDS011;56303;52.160;-0.428;2023-11-19T02:50:33;21.77;;;6.63;;
20743;SDS011;56303;52.160;-0.428;2023-11-19T02:53:00;26.77;;;7.23;;
20743;SDS011;56303;52.160;-0.428;2023-11-19T02:55:27;26.00;;;7.33;;
20743;SDS011;56303;52.160;-0.428;2023-11-19T02:57:57;26.47;;;7.93;;
20743;SDS011;56303;52.160;-0.428;2023-11-19T03:00:26;23.03;;;6.80;;
20743;SDS011;56303;52.160;-0.428;2023-11-19T03:03:01;22.90;;;7.80;;
20743;SDS011;56303;52.160;-0.428;2023-11-19T03:05:46;29.90;;;7.23;;
20743;SDS011;56303;52.160;-0.428;2023-11-19T03:08:14;21.33;;;6.37;;
20743;SDS011;56303;52.160;-0.428;2023-11-19T03:10:45;23.57;;;7.53;;
20743;SDS011;56303;52.160;-0.428;2023-11-19T03:13:12;29.33;;;7.10;;
20743;SDS011;56303;52.160;-0.428;2023-11-19T03:15:48;22.57;;;6.80;;
20743;SDS011;56303;52.160;-0.428;2023-11-19T03:18:15;19.97;;;6.17;;
20743;SDS011;56303;52.160;-0.428;2023-11-19T03:20:42;25.60;;;6.60;;
20743;SDS011;56303;52.160;-0.428;2023-11-19T03:23:09;40.40;;;7.83;;
20743;SDS011;56303;52.160;-0.428;2023-11-19T03:25:37;24.77;;;6.80;;
20743;SDS011;56303;52.160;-0.428;2023-11-19T03:28:04;20.70;;;6.83;;
20743;SDS011;56303;52.160;-0.428;2023-11-19T03:30:32;19.67;;;6.23;;
20743;SDS011;56303;52.160;-0.428;2023-11-19T03:33:00;27.03;;;7.07;;
20743;SDS011;56303;52.160;-0.428;2023-11-19T03:35:28;25.87;;;6.20;;
20743;SDS011;56303;52.160;-0.428;2023-11-19T03:37:55;28.43;;;7.80;;
20743;SDS011;56303;52.160;-0.428;2023-11-19T03:40:22;18.37;;;5.90;;
20743;SDS011;56303;52.160;-0.428;2023-11-19T03:42:50;18.10;;;5.33;;
20743;SDS011;56303;52.160;-0.428;2023-11-19T03:45:17;27.57;;;7.07;;
20743;SDS011;56303;52.160;-0.428;2023-11-19T03:47:44;20.50;;;6.93;;
20743;SDS011;56303;52.160;-0.428;2023-11-19T03:50:11;31.13;;;6.23;;
20743;SDS011;56303;52.160;-0.428;2023-11-19T03:52:37;26.40;;;6.93;;
20743;SDS011;56303;52.160;-0.428;2023-11-19T03:55:07;22.53;;;6.50;;
20743;SDS011;56303;52.160;-0.428;2023-11-19T03:57:35;20.20;;;5.77;;
20743;SDS011;56303;52.160;-0.428;2023-11-19T04:00:02;23.50;;;6.13;;
20743;SDS011;56303;52.160;-0.428;2023-11-19T04:02:47;27.67;;;7.60;;
20743;SDS011;56303;52.160;-0.428;2023-11-19T04:05:14;24.90;;;7.40;;
20743;SDS011;56303;52.160;-0.428;2023-11-19T04:07:41;20.70;;;5.70;;
20743;SDS011;56303;52.160;-0.428;2023-11-19T04:10:07;23.97;;;7.33;;
20743;SDS011;56303;52.160;-0.428;2023-11-19T04:12:35;24.77;;;6.67;;
20743;SDS011;56303;52.160;-0.428;2023-11-19T04:15:02;26.50;;;7.37;;
20743;SDS011;56303;52.160;-0.428;2023-11-19T04:17:29;21.53;;;6.97;;
20743;SDS011;56303;52.160;-0.428;2023-11-19T04:19:56;23.07;;;6.53;;
20743;SDS011;56303;52.160;-0.428;2023-11-19T04:22:22;29.53;;;7.53;;
20743;SDS011;56303;52.160;-0.428;2023-11-19T04:24:49;21.73;;;6.63;;
20743;SDS011;56303;52.160;-0.428;2023-11-19T04:27:16;21.53;;;6.63;;
20743;SDS011;56303;52.160;-0.428;2023-11-19T04:29:43;20.50;;;6.27;;
20743;SDS011;56303;52.160;-0.428;2023-11-19T04:32:09;19.27;;;6.47;;
20743;SDS011;56303;52.160;-0.428;2023-11-19T04:34:36;23.77;;;6.20;;
20743;SDS011;56303;52.160;-0.428;2023-11-19T04:37:03;16.37;;;6.13;;
20743;SDS011;56303;52.160;-0.428;2023-11-19T04:39:34;21.53;;;6.20;;
20743;SDS011;56303;52.160;-0.428;2023-11-19T04:42:01;22.97;;;7.10;;
20743;SDS011;56303;52.160;-0.428;2023-11-19T04:44:28;23.00;;;6.20;;
20743;SDS011;56303;52.160;-0.428;2023-11-19T04:46:56;18.33;;;6.53;;
20743;SDS011;56303;52.160;-0.428;2023-11-19T04:49:23;19.30;;;5.90;;
20743;SDS011;56303;52.160;-0.428;2023-11-19T04:51:53;17.13;;;4.97;;
20743;SDS011;56303;52.160;-0.428;2023-11-19T04:54:20;18.87;;;5.70;;
20743;SDS011;56303;52.160;-0.428;2023-11-19T04:56:46;19.30;;;5.80;;
20743;SDS011;56303;52.160;-0.428;2023-11-19T04:59:14;17.83;;;5.50;;
20743;SDS011;56303;52.160;-0.428;2023-11-19T05:01:41;17.30;;;6.30;;
20743;SDS011;56303;52.160;-0.428;2023-11-19T05:04:08;22.00;;;6.50;;
20743;SDS011;56303;52.160;-0.428;2023-11-19T05:06:35;21.40;;;7.13;;
20743;SDS011;56303;52.160;-0.428;2023-11-19T05:09:02;17.83;;;5.57;;
20743;SDS011;56303;52.160;-0.428;2023-11-19T05:11:34;18.77;;;7.23;;
20743;SDS011;56303;52.160;-0.428;2023-11-19T05:14:04;24.10;;;6.53;;
20743;SDS011;56303;52.160;-0.428;2023-11-19T05:16:31;23.70;;;5.40;;
20743;SDS011;56303;52.160;-0.428;2023-11-19T05:18:58;21.37;;;5.87;;
20743;SDS011;56303;52.160;-0.428;2023-11-19T05:21:25;18.73;;;6.40;;
20743;SDS011;56303;52.160;-0.428;2023-11-19T05:23:52;24.53;;;6.00;;
20743;SDS011;56303;52.160;-0.428;2023-11-19T05:26:21;17.20;;;5.10;;
20743;SDS011;56303;52.160;-0.428;2023-11-19T05:28:50;18.37;;;6.10;;
20743;SDS011;56303;52.160;-0.428;2023-11-19T05:31:17;19.77;;;5.40;;
20743;SDS011;56303;52.160;-0.428;2023-11-19T05:33:44;17.13;;;4.53;;
20743;SDS011;56303;52.160;-0.428;2023-11-19T05:36:11;18.30;;;5.23;;
20743;SDS011;56303;52.160;-0.428;2023-11-19T05:38:39;22.23;;;6.53;;
20743;SDS011;56303;52.160;-0.428;2023-11-19T05:41:06;23.10;;;5.97;;
20743;SDS011;56303;52.160;-0.428;2023-11-19T05:43:33;19.50;;;5.10;;
20743;SDS011;56303;52.160;-0.428;2023-11-19T05:46:00;20.63;;;6.17;;
20743;SDS011;56303;52.160;-0.428;2023-11-19T05:48:43;17.67;;;5.33;;
20743;SDS011;56303;52.160;-0.428;2023-11-19T05:51:12;20.57;;;6.17;;
20743;SDS011;56303;52.160;-0.428;2023-11-19T05:53:41;20.47;;;5.27;;
20743;SDS011;56303;52.160;-0.428;2023-11-19T05:56:08;18.80;;;6.40;;
20743;SDS011;56303;52.160;-0.428;2023-11-19T05:58:36;21.63;;;5.30;;
20743;SDS011;56303;52.160;-0.428;2023-11-19T06:01:04;20.93;;;6.30;;
20743;SDS011;56303;52.160;-0.428;2023-11-19T06:03:33;23.77;;;6.40;;
20743;SDS011;56303;52.160;-0.428;2023-11-19T06:06:00;19.03;;;5.57;;
20743;SDS011;56303;52.160;-0.428;2023-11-19T06:08:27;17.17;;;4.83;;
20743;SDS011;56303;52.160;-0.428;2023-11-19T06:10:55;12.03;;;4.67;;
20743;SDS011;56303;52.160;-0.428;2023-11-19T06:13:22;14.57;;;5.20;;
20743;SDS011;56303;52.160;-0.428;2023-11-19T06:15:50;15.57;;;4.50;;
20743;SDS011;56303;52.160;-0.428;2023-11-19T06:18:17;19.23;;;4.77;;
20743;SDS011;56303;52.160;-0.428;2023-11-19T06:20:47;14.03;;;4.93;;
20743;SDS011;56303;52.160;-0.428;2023-11-19T06:23:14;16.37;;;4.73;;
20743;SDS011;56303;52.160;-0.428;2023-11-19T06:25:41;18.37;;;5.70;;
20743;SDS011;56303;52.160;-0.428;2023-11-19T06:28:08;19.20;;;5.47;;
20743;SDS011;56303;52.160;-0.428;2023-11-19T06:30:35;23.07;;;5.60;;
20743;SDS011;56303;52.160;-0.428;2023-11-19T06:33:02;22.80;;;4.70;;
20743;SDS011;56303;52.160;-0.428;2023-11-19T06:35:30;21.00;;;6.00;;
20743;SDS011;56303;52.160;-0.428;2023-11-19T06:38:03;21.57;;;6.67;;
20743;SDS011;56303;52.160;-0.428;2023-11-19T06:40:33;11.83;;;4.20;;
20743;SDS011;56303;52.160;-0.428;2023-11-19T06:43:03;22.07;;;6.07;;
20743;SDS011;56303;52.160;-0.428;2023-11-19T06:45:31;18.50;;;6.10;;
20743;SDS011;56303;52.160;-0.428;2023-11-19T06:48:00;17.17;;;5.07;;
20743;SDS011;56303;52.160;-0.428;2023-11-19T06:50:30;19.70;;;4.83;;
20743;SDS011;56303;52.160;-0.428;2023-11-19T06:53:00;22.27;;;5.53;;
20743;SDS011;56303;52.160;-0.428;2023-11-19T06:55:27;22.67;;;5.70;;
20743;SDS011;56303;52.160;-0.428;2023-11-19T06:57:54;21.20;;;6.07;;
20743;SDS011;56303;52.160;-0.428;2023-11-19T07:00:21;20.63;;;5.53;;
20743;SDS011;56303;52.160;-0.428;2023-11-19T07:02:47;20.93;;;5.70;;
20743;SDS011;56303;52.160;-0.428;2023-11-19T07:05:16;25.03;;;6.43;;
20743;SDS011;56303;52.160;-0.428;2023-11-19T07:07:43;17.77;;;5.17;;
20743;SDS011;56303;52.160;-0.428;2023-11-19T07:10:09;22.60;;;5.87;;
20743;SDS011;56303;52.160;-0.428;2023-11-19T07:12:36;17.37;;;5.43;;
20743;SDS011;56303;52.160;-0.428;2023-11-19T07:15:05;25.60;;;6.97;;
20743;SDS011;56303;52.160;-0.428;2023-11-19T07:17:32;17.97;;;4.80;;
20743;SDS011;56303;52.160;-0.428;2023-11-19T07:20:01;22.70;;;7.03;;
20743;SDS011;56303;52.160;-0.428;2023-11-19T07:22:28;20.27;;;5.80;;
20743;SDS011;56303;52.160;-0.428;2023-11-19T07:24:56;18.30;;;5.27;;
20743;SDS011;56303;52.160;-0.428;2023-11-19T07:27:23;16.93;;;4.57;;
20743;SDS011;56303;52.160;-0.428;2023-11-19T07:29:50;17.63;;;5.33;;
20743;SDS011;56303;52.160;-0.428;2023-11-19T07:32:18;19.67;;;5.97;;
20743;SDS011;56303;52.160;-0.428;2023-11-19T07:34:45;22.50;;;5.73;;
20743;SDS011;56303;52.160;-0.428;2023-11-19T07:37:12;19.10;;;5.60;;
20743;SDS011;56303;52.160;-0.428;2023-11-19T07:39:38;21.17;;;5.53;;
20743;SDS011;56303;52.160;-0.428;2023-11-19T07:42:07;16.37;;;5.07;;
20743;SDS011;56303;52.160;-0.428;2023-11-19T07:44:35;16.97;;;4.50;;
20743;SDS011;56303;52.160;-0.428;2023-11-19T07:47:03;15.97;;;4.93;;
20743;SDS011;56303;52.160;-0.428;2023-11-19T07:49:30;17.73;;;5.40;;
20743;SDS011;56303;52.160;-0.428;2023-11-19T07:51:57;16.37;;;4.97;;
20743;SDS011;56303;52.160;-0.428;2023-11-19T07:54:24;18.07;;;6.10;;
20743;SDS011;56303;52.160;-0.428;2023-11-19T07:56:52;23.60;;;7.47;;
20743;SDS011;56303;52.160;-0.428;2023-11-19T07:59:19;16.70;;;4.93;;
20743;SDS011;56303;52.160;-0.428;2023-11-19T08:01:46;16.10;;;5.13;;
20743;SDS011;56303;52.160;-0.428;2023-11-19T08:04:14;15.40;;;5.07;;
20743;SDS011;56303;52.160;-0.428;2023-11-19T08:06:41;20.27;;;4.77;;
20743;SDS011;56303;52.160;-0.428;2023-11-19T08:09:08;23.83;;;5.43;;
20743;SDS011;56303;52.160;-0.428;2023-11-19T08:11:42;24.00;;;5.00;;
20743;SDS011;56303;52.160;-0.428;2023-11-19T08:14:09;18.43;;;6.30;;
20743;SDS011;56303;52.160;-0.428;2023-11-19T08:16:36;24.40;;;6.07;;
20743;SDS011;56303;52.160;-0.428;2023-11-19T08:19:05;25.20;;;5.63;;
20743;SDS011;56303;52.160;-0.428;2023-11-19T08:21:32;21.47;;;5.37;;
20743;SDS011;56303;52.160;-0.428;2023-11-19T08:23:59;23.53;;;6.27;;
20743;SDS011;56303;52.160;-0.428;2023-11-19T08:26:26;24.63;;;5.97;;
20743;SDS011;56303;52.160;-0.428;2023-11-19T08:28:53;18.27;;;5.73;;
20743;SDS011;56303;52.160;-0.428;2023-11-19T08:31:20;20.73;;;6.10;;
20743;SDS011;56303;52.160;-0.428;2023-11-19T08:33:47;17.30;;;5.67;;
20743;SDS011;56303;52.160;-0.428;2023-11-19T08:36:17;20.00;;;5.07;;
20743;SDS011;56303;52.160;-0.428;2023-11-19T08:38:44;17.00;;;5.20;;
20743;SDS011;56303;52.160;-0.428;2023-11-19T08:41:11;18.37;;;5.77;;
20743;SDS011;56303;52.160;-0.428;2023-11-19T08:43:38;16.43;;;4.80;;
20743;SDS011;56303;52.160;-0.428;2023-11-19T08:46:11;15.27;;;5.20;;
20743;SDS011;56303;52.160;-0.428;2023-11-19T08:48:38;17.60;;;5.57;;
20743;SDS011;56303;52.160;-0.428;2023-11-19T08:51:05;15.97;;;4.63;;
20743;SDS011;56303;52.160;-0.428;2023-11-19T08:53:33;21.73;;;5.07;;
20743;SDS011;56303;52.160;-0.428;2023-11-19T08:56:00;15.43;;;4.77;;
20743;SDS011;56303;52.160;-0.428;2023-11-19T08:58:29;18.07;;;4.47;;
20743;SDS011;56303;52.160;-0.428;2023-11-19T09:00:57;14.50;;;4.77;;
20743;SDS011;56303;52.160;-0.428;2023-11-19T09:03:24;11.47;;;4.07;;
20743;SDS011;56303;52.160;-0.428;2023-11-19T09:05:56;16.10;;;4.77;;
20743;SDS011;56303;52.160;-0.428;2023-11-19T09:08:23;12.23;;;4.33;;
20743;SDS011;56303;52.160;-0.428;2023-11-19T09:10:50;14.47;;;4.80;;
20743;SDS011;56303;52.160;-0.428;2023-11-19T09:13:17;14.70;;;4.30;;
20743;SDS011;56303;52.160;-0.428;2023-11-19T09:15:44;14.83;;;4.47;;
20743;SDS011;56303;52.160;-0.428;2023-11-19T09:18:11;15.50;;;4.17;;
20743;SDS011;56303;52.160;-0.428;2023-11-19T09:20:38;18.90;;;5.50;;
20743;SDS011;56303;52.160;-0.428;2023-11-19T09:23:05;17.73;;;4.70;;
20743;SDS011;56303;52.160;-0.428;2023-11-19T09:25:34;17.73;;;5.07;;
20743;SDS011;56303;52.160;-0.428;2023-11-19T09:28:04;15.77;;;4.63;;
20743;SDS011;56303;52.160;-0.428;2023-11-19T09:30:31;15.17;;;4.80;;
20743;SDS011;56303;52.160;-0.428;2023-11-19T09:33:00;18.27;;;4.80;;
20743;SDS011;56303;52.160;-0.428;2023-11-19T09:35:28;17.63;;;4.60;;
20743;SDS011;56303;52.160;-0.428;2023-11-19T09:37:54;14.57;;;4.10;;
20743;SDS011;56303;52.160;-0.428;2023-11-19T09:40:21;16.47;;;4.90;;
20743;SDS011;56303;52.160;-0.428;2023-11-19T09:42:49;18.33;;;4.87;;
20743;SDS011;56303;52.160;-0.428;2023-11-19T09:45:17;14.40;;;5.40;;
20743;SDS011;56303;52.160;-0.428;2023-11-19T09:47:47;11.60;;;3.73;;
20743;SDS011;56303;52.160;-0.428;2023-11-19T09:50:17;14.87;;;4.77;;
20743;SDS011;56303;52.160;-0.428;2023-11-19T09:52:45;12.70;;;4.30;;
20743;SDS011;56303;52.160;-0.428;2023-11-19T09:55:13;17.13;;;4.50;;
20743;SDS011;56303;52.160;-0.428;2023-11-19T09:57:40;13.50;;;3.60;;
20743;SDS011;56303;52.160;-0.428;2023-11-19T10:00:08;15.10;;;5.20;;
20743;SDS011;56303;52.160;-0.428;2023-11-19T10:02:37;17.07;;;5.00;;
20743;SDS011;56303;52.160;-0.428;2023-11-19T10:05:06;14.87;;;5.37;;
20743;SDS011;56303;52.160;-0.428;2023-11-19T10:07:33;11.83;;;4.00;;
20743;SDS011;56303;52.160;-0.428;2023-11-19T10:10:01;13.33;;;4.43;;
20743;SDS011;56303;52.160;-0.428;2023-11-19T10:12:30;15.50;;;4.77;;
20743;SDS011;56303;52.160;-0.428;2023-11-19T10:14:57;16.80;;;4.83;;
20743;SDS011;56303;52.160;-0.428;2023-11-19T10:17:28;13.70;;;3.57;;
20743;SDS011;56303;52.160;-0.428;2023-11-19T10:19:59;14.03;;;4.40;;
20743;SDS011;56303;52.160;-0.428;2023-11-19T10:22:27;16.63;;;5.70;;
20743;SDS011;56303;52.160;-0.428;2023-11-19T10:24:54;11.73;;;4.13;;
20743;SDS011;56303;52.160;-0.428;2023-11-19T10:27:25;17.83;;;4.90;;
20743;SDS011;56303;52.160;-0.428;2023-11-19T10:29:52;17.07;;;4.13;;
20743;SDS011;56303;52.160;-0.428;2023-11-19T10:32:19;14.20;;;3.60;;
20743;SDS011;56303;52.160;-0.428;2023-11-19T10:34:56;12.43;;;4.03;;
20743;SDS011;56303;52.160;-0.428;2023-11-19T10:37:32;11.53;;;3.83;;
20743;SDS011;56303;52.160;-0.428;2023-11-19T10:40:02;14.60;;;4.00;;
20743;SDS011;56303;52.160;-0.428;2023-11-19T10:42:31;13.93;;;3.93;;
20743;SDS011;56303;52.160;-0.428;2023-11-19T10:44:58;12.87;;;4.43;;
20743;SDS011;56303;52.160;-0.428;2023-11-19T10:47:26;14.17;;;4.33;;
20743;SDS011;56303;52.160;-0.428;2023-11-19T10:50:18;14.50;;;4.07;;
20743;SDS011;56303;52.160;-0.428;2023-11-19T10:52:44;16.33;;;4.80;;
20743;SDS011;56303;52.160;-0.428;2023-11-19T10:55:14;12.87;;;3.83;;
20743;SDS011;56303;52.160;-0.428;2023-11-19T10:57:44;12.97;;;4.27;;
20743;SDS011;56303;52.160;-0.428;2023-11-19T11:00:15;15.80;;;4.33;;
20743;SDS011;56303;52.160;-0.428;2023-11-19T11:02:48;12.13;;;3.53;;
20743;SDS011;56303;52.160;-0.428;2023-11-19T11:05:19;12.60;;;3.50;;
20743;SDS011;56303;52.160;-0.428;2023-11-19T11:07:49;11.63;;;3.80;;
20743;SDS011;56303;52.160;-0.428;2023-11-19T11:10:18;12.03;;;3.90;;
20743;SDS011;56303;52.160;-0.428;2023-11-19T11:12:48;13.00;;;4.07;;
20743;SDS011;56303;52.160;-0.428;2023-11-19T11:15:19;17.37;;;4.83;;
20743;SDS011;56303;52.160;-0.428;2023-11-19T11:17:47;14.83;;;4.60;;
20743;SDS011;56303;52.160;-0.428;2023-11-19T11:20:15;16.80;;;4.83;;
20743;SDS011;56303;52.160;-0.428;2023-11-19T11:22:57;12.70;;;4.43;;
20743;SDS011;56303;52.160;-0.428;2023-11-19T11:28:09;17.27;;;4.60;;
20743;SDS011;56303;52.160;-0.428;2023-11-19T11:30:49;9.33;;;3.27;;
20743;SDS011;56303;52.160;-0.428;2023-11-19T11:33:38;16.67;;;3.83;;
20743;SDS011;56303;52.160;-0.428;2023-11-19T11:36:23;13.00;;;3.93;;
20743;SDS011;56303;52.160;-0.428;2023-11-19T11:38:51;11.37;;;3.40;;
20743;SDS011;56303;52.160;-0.428;2023-11-19T11:41:22;14.17;;;3.47;;
20743;SDS011;56303;52.160;-0.428;2023-11-19T11:43:55;11.53;;;3.87;;
20743;SDS011;56303;52.160;-0.428;2023-11-19T12:02:15;9.60;;;2.53;;
20743;SDS011;56303;52.160;-0.428;2023-11-19T12:04:50;8.13;;;2.43;;
20743;SDS011;56303;52.160;-0.428;2023-11-19T12:07:20;12.13;;;3.50;;
20743;SDS011;56303;52.160;-0.428;2023-11-19T12:09:52;7.47;;;2.87;;
20743;SDS011;56303;52.160;-0.428;2023-11-19T12:12:31;10.20;;;3.43;;
20743;SDS011;56303;52.160;-0.428;2023-11-19T12:15:03;8.43;;;3.17;;
20743;SDS011;56303;52.160;-0.428;2023-11-19T12:17:36;8.40;;;2.50;;
20743;SDS011;56303;52.160;-0.428;2023-11-19T12:20:07;9.47;;;2.90;;
20743;SDS011;56303;52.160;-0.428;2023-11-19T12:22:38;12.13;;;3.33;;
20743;SDS011;56303;52.160;-0.428;2023-11-19T12:25:07;11.43;;;3.10;;
20743;SDS011;56303;52.160;-0.428;2023-11-19T12:27:41;14.20;;;3.33;;
20743;SDS011;56303;52.160;-0.428;2023-11-19T12:30:23;11.27;;;3.57;;
20743;SDS011;56303;52.160;-0.428;2023-11-19T12:32:55;7.27;;;2.77;;
20743;SDS011;56303;52.160;-0.428;2023-11-19T12:35:22;11.40;;;3.13;;
20743;SDS011;56303;52.160;-0.428;2023-11-19T12:37:50;9.90;;;3.10;;
20743;SDS011;56303;52.160;-0.428;2023-11-19T12:40:19;8.73;;;3.07;;
20743;SDS011;56303;52.160;-0.428;2023-11-19T12:42:51;8.67;;;2.97;;
20743;SDS011;56303;52.160;-0.428;2023-11-19T12:45:20;10.63;;;2.77;;
20743;SDS011;56303;52.160;-0.428;2023-11-19T12:47:47;8.20;;;2.83;;
20743;SDS011;56303;52.160;-0.428;2023-11-19T12:50:15;9.87;;;3.60;;
20743;SDS011;56303;52.160;-0.428;2023-11-19T12:52:57;9.33;;;2.90;;
20743;SDS011;56303;52.160;-0.428;2023-11-19T12:55:28;12.23;;;3.30;;
20743;SDS011;56303;52.160;-0.428;2023-11-19T12:57:57;7.10;;;2.27;;
20743;SDS011;56303;52.160;-0.428;2023-11-19T13:00:25;6.30;;;2.93;;
20743;SDS011;56303;52.160;-0.428;2023-11-19T13:02:54;7.67;;;2.27;;
20743;SDS011;56303;52.160;-0.428;2023-11-19T13:08:06;6.27;;;2.07;;
20743;SDS011;56303;52.160;-0.428;2023-11-19T13:10:56;8.10;;;2.77;;
20743;SDS011;56303;52.160;-0.428;2023-11-19T13:13:21;10.80;;;2.47;;
20743;SDS011;56303;52.160;-0.428;2023-11-19T13:15:48;7.00;;;2.20;;
20743;SDS011;56303;52.160;-0.428;2023-11-19T13:18:16;6.77;;;2.50;;
20743;SDS011;56303;52.160;-0.428;2023-11-19T13:20:43;6.80;;;2.20;;
20743;SDS011;56303;52.160;-0.428;2023-11-19T13:23:10;8.10;;;2.60;;
20743;SDS011;56303;52.160;-0.428;2023-11-19T13:25:37;4.30;;;1.77;;
20743;SDS011;56303;52.160;-0.428;2023-11-19T13:28:04;5.90;;;2.37;;
20743;SDS011;56303;52.160;-0.428;2023-11-19T13:30:32;5.63;;;2.17;;
20743;SDS011;56303;52.160;-0.428;2023-11-19T13:32:59;5.37;;;2.10;;
20743;SDS011;56303;52.160;-0.428;2023-11-19T13:35:27;5.73;;;2.30;;
20743;SDS011;56303;52.160;-0.428;2023-11-19T13:37:54;4.67;;;2.07;;
20743;SDS011;56303;52.160;-0.428;2023-11-19T13:40:21;5.50;;;1.63;;
20743;SDS011;56303;52.160;-0.428;2023-11-19T13:42:50;6.20;;;2.27;;
20743;SDS011;56303;52.160;-0.428;2023-11-19T13:45:17;4.17;;;1.77;;
20743;SDS011;56303;52.160;-0.428;2023-11-19T13:47:45;4.20;;;1.70;;
20743;SDS011;56303;52.160;-0.428;2023-11-19T13:50:13;3.10;;;1.50;;
20743;SDS011;56303;52.160;-0.428;2023-11-19T13:52:43;3.47;;;1.47;;
20743;SDS011;56303;52.160;-0.428;2023-11-19T13:55:12;6.90;;;1.73;;
20743;SDS011;56303;52.160;-0.428;2023-11-19T13:57:40;5.83;;;1.67;;
20743;SDS011;56303;52.160;-0.428;2023-11-19T14:00:08;4.17;;;1.50;;
20743;SDS011;56303;52.160;-0.428;2023-11-19T14:02:40;5.40;;;1.60;;
20743;SDS011;56303;52.160;-0.428;2023-11-19T14:05:07;3.90;;;1.80;;
20743;SDS011;56303;52.160;-0.428;2023-11-19T14:07:35;4.13;;;1.27;;
20743;SDS011;56303;52.160;-0.428;2023-11-19T14:10:02;2.63;;;1.50;;
20743;SDS011;56303;52.160;-0.428;2023-11-19T14:12:29;4.00;;;1.20;;
20743;SDS011;56303;52.160;-0.428;2023-11-19T14:14:56;3.90;;;1.33;;
20743;SDS011;56303;52.160;-0.428;2023-11-19T14:17:23;2.63;;;1.40;;
20743;SDS011;56303;52.160;-0.428;2023-11-19T14:19:51;3.57;;;1.30;;
20743;SDS011;56303;52.160;-0.428;2023-11-19T14:22:18;3.77;;;1.53;;
20743;SDS011;56303;52.160;-0.428;2023-11-19T14:24:45;4.23;;;1.43;;
20743;SDS011;56303;52.160;-0.428;2023-11-19T14:27:12;6.47;;;2.00;;
20743;SDS011;56303;52.160;-0.428;2023-11-19T14:29:39;4.67;;;1.50;;
20743;SDS011;56303;52.160;-0.428;2023-11-19T14:32:06;4.40;;;1.50;;
20743;SDS011;56303;52.160;-0.428;2023-11-19T14:34:33;4.00;;;1.30;;
20743;SDS011;56303;52.160;-0.428;2023-11-19T14:37:00;4.00;;;1.60;;
20743;SDS011;56303;52.160;-0.428;2023-11-19T14:39:27;3.23;;;1.40;;
20743;SDS011;56303;52.160;-0.428;2023-11-19T14:41:55;2.57;;;1.20;;
20743;SDS011;56303;52.160;-0.428;2023-11-19T14:44:24;3.57;;;1.63;;
20743;SDS011;56303;52.160;-0.428;2023-11-19T14:46:51;3.10;;;1.50;;
20743;SDS011;56303;52.160;-0.428;2023-11-19T14:49:18;4.30;;;1.43;;
20743;SDS011;56303;52.160;-0.428;2023-11-19T14:51:45;5.33;;;2.00;;